createdAt,value
2019-02-21T14:29:12.501Z,31.35
2019-02-21T14:31:38.818Z,31.30
2019-02-21T14:34:05.137Z,32.38
2019-02-21T14:36:31.522Z,31.15
2019-02-21T14:38:57.828Z,30.05
2019-02-21T14:41:24.161Z,30.00
2019-02-21T14:43:50.628Z,29.65
2019-02-21T14:46:16.942Z,33.23
2019-02-21T14:48:43.307Z,30.35
2019-02-21T14:51:09.686Z,33.33
2019-02-21T14:53:36.034Z,31.85
2019-02-21T14:56:02.359Z,30.50
2019-02-21T14:58:28.739Z,30.48
2019-02-21T15:00:55.113Z,32.25
2019-02-21T15:03:22.415Z,31.90
2019-02-21T15:05:49.006Z,31.52
2019-02-21T15:08:18.092Z,33.23
2019-02-21T15:10:44.395Z,32.50
2019-02-21T15:13:10.825Z,30.85
2019-02-21T15:15:37.124Z,31.05
2019-02-21T15:18:07.523Z,31.85
2019-02-21T15:20:36.920Z,30.45
2019-02-21T15:22:59.918Z,30.23
2019-02-21T15:25:26.242Z,29.92
2019-02-21T15:27:52.634Z,30.85
2019-02-21T15:30:24.192Z,30.43
2019-02-21T15:32:50.493Z,26.48
2019-02-21T15:35:19.254Z,30.82
2019-02-21T15:37:45.325Z,32.13
2019-02-21T15:40:11.723Z,31.62
2019-02-21T15:42:38.092Z,32.58
2019-02-21T15:45:23.087Z,31.60
2019-02-21T15:47:45.291Z,33.67
2019-02-21T15:50:13.045Z,32.55
2019-02-21T15:52:39.396Z,33.45
2019-02-21T15:55:12.377Z,34.55
2019-02-21T15:57:36.727Z,33.53
2019-02-21T16:00:09.220Z,34.25
2019-02-21T16:02:35.566Z,33.90
2019-02-21T16:05:02.004Z,30.70
2019-02-21T16:07:28.295Z,30.77
2019-02-21T16:09:54.588Z,30.10
2019-02-21T16:12:21.193Z,30.17
2019-02-21T16:14:47.805Z,31.52
2019-02-21T16:17:14.105Z,34.58
2019-02-21T16:19:40.496Z,33.33
2019-02-21T16:22:06.801Z,33.38
2019-02-21T16:24:33.167Z,31.77
2019-02-21T16:26:59.563Z,29.80
2019-02-21T16:29:26.115Z,29.32
2019-02-21T16:31:52.444Z,30.20
2019-02-21T16:34:18.814Z,29.77
2019-02-21T16:36:45.143Z,31.73
2019-02-21T16:39:11.471Z,33.78
2019-02-21T16:41:37.854Z,37.83
2019-02-21T16:44:04.179Z,41.13
2019-02-21T16:46:30.479Z,40.50
2019-02-21T16:48:56.982Z,40.35
2019-02-21T16:51:23.379Z,38.63
2019-02-21T16:53:49.703Z,39.33
2019-02-21T16:56:16.094Z,40.15
2019-02-21T16:58:42.882Z,41.50
2019-02-21T17:01:09.511Z,49.13
2019-02-21T17:03:35.936Z,49.30
2019-02-21T17:06:03.554Z,49.33
2019-02-21T17:08:30.139Z,53.63
2019-02-21T17:10:56.539Z,50.85
2019-02-21T17:13:22.843Z,48.78
2019-02-21T17:15:49.176Z,54.48
2019-02-21T17:18:15.564Z,51.88
2019-02-21T17:20:41.864Z,56.80
2019-02-21T17:23:08.224Z,54.60
2019-02-21T17:25:34.649Z,50.52
2019-02-21T17:28:01.093Z,60.80
2019-02-21T17:30:27.511Z,51.83
2019-02-21T17:32:53.949Z,51.45
2019-02-21T17:35:20.486Z,50.80
2019-02-21T17:37:46.807Z,51.28
2019-02-21T17:40:15.573Z,50.43
2019-02-21T17:42:41.929Z,52.27
2019-02-21T17:45:09.080Z,51.92
2019-02-21T17:47:35.610Z,52.03
2019-02-21T17:50:02.047Z,53.02
2019-02-21T17:52:28.481Z,54.55
2019-02-21T17:54:54.906Z,53.92
2019-02-21T17:57:21.235Z,54.88
2019-02-21T17:59:47.674Z,56.92
2019-02-21T18:02:14.201Z,54.48
2019-02-21T18:04:40.652Z,52.78
2019-02-21T18:07:06.978Z,57.13
2019-02-21T18:09:33.396Z,57.43
2019-02-21T18:11:59.728Z,57.80
2019-02-21T18:14:26.164Z,55.08
2019-02-21T18:16:52.689Z,54.15
2019-02-21T18:19:18.996Z,55.98
2019-02-21T18:21:45.296Z,53.98
2019-02-21T18:24:11.679Z,57.62
2019-02-21T18:26:38.119Z,54.00
2019-02-21T18:29:04.553Z,57.60
2019-02-21T18:31:30.985Z,58.23
2019-02-21T18:33:57.306Z,55.95
2019-02-21T18:36:23.613Z,58.85
2019-02-21T18:38:50.006Z,56.73
2019-02-21T18:41:16.399Z,58.28
2019-02-21T18:43:42.739Z,57.35
2019-02-21T18:46:09.125Z,57.08
2019-02-21T18:48:35.440Z,57.90
2019-02-21T18:51:01.764Z,55.80
2019-02-21T18:53:28.214Z,55.35
2019-02-21T18:55:54.533Z,55.33
2019-02-21T18:58:20.917Z,56.15
2019-02-21T19:00:47.311Z,55.83
2019-02-21T19:03:13.658Z,54.65
2019-02-21T19:05:40.042Z,56.05
2019-02-21T19:08:06.444Z,54.90
2019-02-21T19:10:32.818Z,54.10
2019-02-21T19:12:59.174Z,53.17
2019-02-21T19:15:26.255Z,54.63
2019-02-21T19:17:52.576Z,55.03
2019-02-21T19:20:20.207Z,56.98
2019-02-21T19:22:46.702Z,54.58
2019-02-21T19:25:13.013Z,58.78
2019-02-21T19:27:39.324Z,56.42
2019-02-21T19:30:09.325Z,57.17
2019-02-21T19:32:35.682Z,57.43
2019-02-21T19:35:02.115Z,61.13
2019-02-21T19:37:28.649Z,59.05
2019-02-21T19:39:55.188Z,64.75
2019-02-21T19:42:21.606Z,63.65
2019-02-21T19:44:48.051Z,66.12
2019-02-21T19:47:14.479Z,69.07
2019-02-21T19:49:40.804Z,78.00
2019-02-21T19:52:07.235Z,75.15
2019-02-21T19:54:33.679Z,76.12
2019-02-21T19:57:34.891Z,98.65
2019-02-21T20:00:01.684Z,89.47
2019-02-21T20:02:29.801Z,90.20
2019-02-21T20:04:56.491Z,98.72
2019-02-21T20:07:24.358Z,99.58
2019-02-21T20:09:51.090Z,100.45
2019-02-21T20:12:17.791Z,101.78
2019-02-21T20:14:44.519Z,101.02
2019-02-21T20:17:11.131Z,101.87
2019-02-21T20:19:37.806Z,102.92
2019-02-21T20:22:04.483Z,105.67
2019-02-21T20:24:31.195Z,105.72
2019-02-21T20:27:00.252Z,101.82
2019-02-21T20:29:26.636Z,101.18
2019-02-21T20:31:53.346Z,109.55
2019-02-21T20:34:19.978Z,107.97
2019-02-21T20:36:51.050Z,107.78
2019-02-21T20:39:15.237Z,111.40
2019-02-21T20:41:41.888Z,110.35
2019-02-21T20:44:08.698Z,106.15
2019-02-21T20:46:35.327Z,101.18
2019-02-21T20:49:01.981Z,96.57
2019-02-21T20:51:29.708Z,90.38
2019-02-21T20:53:56.307Z,88.27
2019-02-21T20:56:22.979Z,91.92
2019-02-21T20:58:49.658Z,91.40
2019-02-21T21:01:16.279Z,86.95
2019-02-21T21:03:43.000Z,91.10
2019-02-21T21:06:09.691Z,88.62
2019-02-21T21:08:43.260Z,89.72
2019-02-21T21:11:05.019Z,85.62
2019-02-21T21:13:31.756Z,84.67
2019-02-21T21:15:58.343Z,82.78
2019-02-21T21:18:25.027Z,81.28
2019-02-21T21:20:51.712Z,79.53
2019-02-21T21:23:18.399Z,83.97
2019-02-21T21:25:45.123Z,88.82
2019-02-21T21:28:11.839Z,86.12
2019-02-21T21:30:38.487Z,82.25
2019-02-21T21:33:05.166Z,82.80
2019-02-21T21:35:31.907Z,82.10
2019-02-21T21:37:58.512Z,81.10
2019-02-21T21:40:25.126Z,80.95
2019-02-21T21:42:51.837Z,77.65
2019-02-21T21:45:18.467Z,76.35
2019-02-21T21:47:45.055Z,159.10
2019-02-21T21:50:13.435Z,145.38
2019-02-21T21:52:40.128Z,154.45
2019-02-21T21:55:06.813Z,186.15
2019-02-21T21:57:33.529Z,197.00
2019-02-21T22:00:00.349Z,200.97
2019-02-21T22:02:27.153Z,192.92
2019-02-21T22:04:53.888Z,156.35
2019-02-21T22:07:20.611Z,163.18
2019-02-21T22:09:47.332Z,171.35
2019-02-21T22:12:14.032Z,137.30
2019-02-21T22:14:40.631Z,124.02
2019-02-21T22:17:07.456Z,109.42
2019-02-21T22:19:34.091Z,105.70
2019-02-21T22:22:00.785Z,103.15
2019-02-21T22:24:27.497Z,103.65
2019-02-21T22:26:54.100Z,97.10
2019-02-21T22:29:20.796Z,93.22
2019-02-21T22:31:47.539Z,92.67
2019-02-21T22:34:14.156Z,85.07
2019-02-21T22:36:40.780Z,84.95
2019-02-21T22:39:15.915Z,81.78
2019-02-21T22:41:36.134Z,78.30
2019-02-21T22:44:02.760Z,81.02
2019-02-21T22:46:29.465Z,79.12
2019-02-21T22:48:56.051Z,82.22
2019-02-21T22:51:22.728Z,82.67
2019-02-21T22:53:49.408Z,83.90
2019-02-21T22:56:16.124Z,85.20
2019-02-21T22:58:45.326Z,80.17
2019-02-21T23:01:16.151Z,80.97
2019-02-21T23:03:48.128Z,79.20
2019-02-21T23:06:26.859Z,80.50
2019-02-21T23:08:53.516Z,76.82
2019-02-21T23:11:20.808Z,81.20
2019-02-21T23:13:47.623Z,82.85
2019-02-21T23:16:14.370Z,81.10
2019-02-21T23:18:40.979Z,80.53
2019-02-21T23:21:07.689Z,79.20
2019-02-21T23:23:34.378Z,79.35
2019-02-21T23:26:02.106Z,84.62
2019-02-21T23:28:29.896Z,83.75
2019-02-21T23:30:56.614Z,84.05
2019-02-21T23:33:24.413Z,84.60
2019-02-21T23:35:51.091Z,80.22
2019-02-21T23:38:17.798Z,82.75
2019-02-21T23:40:44.417Z,82.47
2019-02-21T23:43:11.138Z,81.53
2019-02-21T23:45:37.832Z,81.78
2019-02-21T23:48:04.466Z,84.03
2019-02-21T23:50:31.125Z,86.22
2019-02-21T23:52:57.842Z,87.45
2019-02-21T23:55:24.432Z,88.35
2019-02-21T23:57:51.112Z,91.60
